sensor_id;sensor_type;location;lat;lon;timestamp;temperature;humidity
18712;DHT22;9485;49.386;8.674;2023-07-20T00:04:07;25.40;38.70
18712;DHT22;9485;49.386;8.674;2023-07-20T00:09:28;25.40;38.80
18712;DHT22;9485;49.386;8.674;2023-07-20T00:14:50;25.30;38.70
18712;DHT22;9485;49.386;8.674;2023-07-20T00:20:13;25.20;38.80
18712;DHT22;9485;49.386;8.674;2023-07-20T00:25:34;25.20;38.90
18712;DHT22;9485;49.386;8.674;2023-07-20T00:30:59;25.10;38.90
18712;DHT22;9485;49.386;8.674;2023-07-20T00:36:20;24.90;39.20
18712;DHT22;9485;49.386;8.674;2023-07-20T00:41:41;24.90;39.20
18712;DHT22;9485;49.386;8.674;2023-07-20T00:47:03;24.80;39.30
18712;DHT22;9485;49.386;8.674;2023-07-20T00:52:27;24.80;39.60
18712;DHT22;9485;49.386;8.674;2023-07-20T00:57:49;24.70;39.70
18712;DHT22;9485;49.386;8.674;2023-07-20T01:03:12;24.70;39.80
18712;DHT22;9485;49.386;8.674;2023-07-20T01:08:40;24.60;39.80
18712;DHT22;9485;49.386;8.674;2023-07-20T01:14:06;24.50;40.00
18712;DHT22;9485;49.386;8.674;2023-07-20T01:19:29;24.40;39.90
18712;DHT22;9485;49.386;8.674;2023-07-20T01:25:07;24.30;40.20
18712;DHT22;9485;49.386;8.674;2023-07-20T01:30:46;24.20;40.60
18712;DHT22;9485;49.386;8.674;2023-07-20T01:36:16;24.10;40.50
18712;DHT22;9485;49.386;8.674;2023-07-20T01:41:38;24.00;40.70
18712;DHT22;9485;49.386;8.674;2023-07-20T01:46:59;23.80;40.60
18712;DHT22;9485;49.386;8.674;2023-07-20T01:52:21;23.70;40.80
18712;DHT22;9485;49.386;8.674;2023-07-20T01:57:43;23.60;41.00
18712;DHT22;9485;49.386;8.674;2023-07-20T02:03:04;23.50;41.10
18712;DHT22;9485;49.386;8.674;2023-07-20T02:08:26;23.30;41.30
18712;DHT22;9485;49.386;8.674;2023-07-20T02:13:50;23.20;41.60
18712;DHT22;9485;49.386;8.674;2023-07-20T02:19:10;23.10;41.60
18712;DHT22;9485;49.386;8.674;2023-07-20T02:24:32;22.90;41.80
18712;DHT22;9485;49.386;8.674;2023-07-20T02:29:53;22.80;42.10
18712;DHT22;9485;49.386;8.674;2023-07-20T02:35:14;22.70;42.20
18712;DHT22;9485;49.386;8.674;2023-07-20T02:40:37;22.60;42.30
18712;DHT22;9485;49.386;8.674;2023-07-20T02:45:58;22.50;42.60
18712;DHT22;9485;49.386;8.674;2023-07-20T02:51:19;22.40;42.70
18712;DHT22;9485;49.386;8.674;2023-07-20T02:56:41;22.30;42.80
18712;DHT22;9485;49.386;8.674;2023-07-20T03:02:02;22.20;43.30
18712;DHT22;9485;49.386;8.674;2023-07-20T03:07:23;22.10;43.30
18712;DHT22;9485;49.386;8.674;2023-07-20T03:12:45;22.00;43.40
18712;DHT22;9485;49.386;8.674;2023-07-20T03:18:06;22.00;43.80
18712;DHT22;9485;49.386;8.674;2023-07-20T03:23:27;21.90;43.70
18712;DHT22;9485;49.386;8.674;2023-07-20T03:28:50;21.80;43.80
18712;DHT22;9485;49.386;8.674;2023-07-20T03:34:10;21.90;44.10
18712;DHT22;9485;49.386;8.674;2023-07-20T03:39:31;21.90;44.10
18712;DHT22;9485;49.386;8.674;2023-07-20T03:44:53;22.00;44.20
18712;DHT22;9485;49.386;8.674;2023-07-20T03:50:14;22.10;44.30
18712;DHT22;9485;49.386;8.674;2023-07-20T03:55:35;22.10;44.20
18712;DHT22;9485;49.386;8.674;2023-07-20T04:00:58;22.20;44.30
18712;DHT22;9485;49.386;8.674;2023-07-20T04:06:18;22.20;44.40
18712;DHT22;9485;49.386;8.674;2023-07-20T04:11:39;22.20;44.40
18712;DHT22;9485;49.386;8.674;2023-07-20T04:17:02;22.30;44.40
18712;DHT22;9485;49.386;8.674;2023-07-20T04:22:23;22.30;44.50
18712;DHT22;9485;49.386;8.674;2023-07-20T04:27:44;22.30;44.50
18712;DHT22;9485;49.386;8.674;2023-07-20T04:33:06;22.30;44.60
18712;DHT22;9485;49.386;8.674;2023-07-20T04:38:27;22.30;44.80
18712;DHT22;9485;49.386;8.674;2023-07-20T04:44:08;22.30;44.70
18712;DHT22;9485;49.386;8.674;2023-07-20T04:49:30;22.40;44.80
18712;DHT22;9485;49.386;8.674;2023-07-20T04:54:51;22.50;44.90
18712;DHT22;9485;49.386;8.674;2023-07-20T05:00:13;22.50;44.70
18712;DHT22;9485;49.386;8.674;2023-07-20T05:05:36;22.60;44.70
18712;DHT22;9485;49.386;8.674;2023-07-20T05:10:57;23.10;45.00
18712;DHT22;9485;49.386;8.674;2023-07-20T05:16:19;22.30;44.50
18712;DHT22;9485;49.386;8.674;2023-07-20T05:21:42;22.70;44.60
18712;DHT22;9485;49.386;8.674;2023-07-20T05:27:03;22.80;44.60
18712;DHT22;9485;49.386;8.674;2023-07-20T05:32:26;22.80;44.50
18712;DHT22;9485;49.386;8.674;2023-07-20T05:37:48;22.80;44.60
18712;DHT22;9485;49.386;8.674;2023-07-20T05:43:10;22.90;45.00
18712;DHT22;9485;49.386;8.674;2023-07-20T05:48:31;23.00;44.80
18712;DHT22;9485;49.386;8.674;2023-07-20T05:53:53;23.10;44.90
18712;DHT22;9485;49.386;8.674;2023-07-20T05:59:14;23.20;45.00
18712;DHT22;9485;49.386;8.674;2023-07-20T06:04:35;23.40;44.90
18712;DHT22;9485;49.386;8.674;2023-07-20T06:09:59;23.40;44.60
18712;DHT22;9485;49.386;8.674;2023-07-20T06:15:27;23.60;45.30
18712;DHT22;9485;49.386;8.674;2023-07-20T06:20:50;23.70;44.80
18712;DHT22;9485;49.386;8.674;2023-07-20T06:26:12;23.80;44.70
18712;DHT22;9485;49.386;8.674;2023-07-20T06:31:34;24.00;44.60
18712;DHT22;9485;49.386;8.674;2023-07-20T06:36:55;24.10;44.50
18712;DHT22;9485;49.386;8.674;2023-07-20T06:42:17;24.10;44.40
18712;DHT22;9485;49.386;8.674;2023-07-20T06:47:38;24.20;44.40
18712;DHT22;9485;49.386;8.674;2023-07-20T06:52:59;24.30;44.30
18712;DHT22;9485;49.386;8.674;2023-07-20T06:58:23;24.40;44.30
18712;DHT22;9485;49.386;8.674;2023-07-20T07:03:44;24.50;44.30
18712;DHT22;9485;49.386;8.674;2023-07-20T07:09:05;24.60;44.30
18712;DHT22;9485;49.386;8.674;2023-07-20T07:14:29;25.30;44.60
18712;DHT22;9485;49.386;8.674;2023-07-20T07:19:52;24.90;44.10
18712;DHT22;9485;49.386;8.674;2023-07-20T07:25:15;25.20;44.30
18712;DHT22;9485;49.386;8.674;2023-07-20T07:30:38;25.50;44.30
18712;DHT22;9485;49.386;8.674;2023-07-20T07:35:59;26.10;44.90
18712;DHT22;9485;49.386;8.674;2023-07-20T07:41:21;27.00;45.30
18712;DHT22;9485;49.386;8.674;2023-07-20T07:46:43;28.10;45.00
18712;DHT22;9485;49.386;8.674;2023-07-20T07:52:10;29.30;44.80
18712;DHT22;9485;49.386;8.674;2023-07-20T07:57:30;30.40;43.50
18712;DHT22;9485;49.386;8.674;2023-07-20T08:02:53;31.60;42.70
18712;DHT22;9485;49.386;8.674;2023-07-20T08:08:14;32.60;41.60
18712;DHT22;9485;49.386;8.674;2023-07-20T08:13:36;33.40;40.40
18712;DHT22;9485;49.386;8.674;2023-07-20T08:18:59;34.10;39.10
18712;DHT22;9485;49.386;8.674;2023-07-20T08:24:21;34.50;37.30
18712;DHT22;9485;49.386;8.674;2023-07-20T08:29:42;34.20;35.90
18712;DHT22;9485;49.386;8.674;2023-07-20T08:35:05;33.60;35.60
18712;DHT22;9485;49.386;8.674;2023-07-20T08:40:26;33.30;36.50
18712;DHT22;9485;49.386;8.674;2023-07-20T08:45:48;33.00;36.80
18712;DHT22;9485;49.386;8.674;2023-07-20T08:51:13;33.30;37.20
18712;DHT22;9485;49.386;8.674;2023-07-20T08:56:36;33.70;36.50
18712;DHT22;9485;49.386;8.674;2023-07-20T09:01:59;34.00;35.90
18712;DHT22;9485;49.386;8.674;2023-07-20T09:07:23;33.90;35.00
18712;DHT22;9485;49.386;8.674;2023-07-20T09:12:45;33.70;35.50
18712;DHT22;9485;49.386;8.674;2023-07-20T09:18:06;33.70;36.10
18712;DHT22;9485;49.386;8.674;2023-07-20T09:23:32;34.10;35.70
18712;DHT22;9485;49.386;8.674;2023-07-20T09:28:54;34.50;34.60
18712;DHT22;9485;49.386;8.674;2023-07-20T09:34:15;34.90;34.50
18712;DHT22;9485;49.386;8.674;2023-07-20T09:39:43;35.20;34.20
18712;DHT22;9485;49.386;8.674;2023-07-20T09:45:07;35.50;33.20
18712;DHT22;9485;49.386;8.674;2023-07-20T09:50:29;35.70;32.70
18712;DHT22;9485;49.386;8.674;2023-07-20T09:55:52;35.80;32.50
18712;DHT22;9485;49.386;8.674;2023-07-20T10:01:18;35.60;32.00
18712;DHT22;9485;49.386;8.674;2023-07-20T10:06:42;35.60;31.90
18712;DHT22;9485;49.386;8.674;2023-07-20T10:12:09;35.60;32.00
18712;DHT22;9485;49.386;8.674;2023-07-20T10:17:30;35.40;31.30
18712;DHT22;9485;49.386;8.674;2023-07-20T10:22:53;35.20;31.50
18712;DHT22;9485;49.386;8.674;2023-07-20T10:28:17;35.30;32.00
18712;DHT22;9485;49.386;8.674;2023-07-20T10:33:38;35.50;31.50
18712;DHT22;9485;49.386;8.674;2023-07-20T10:39:00;35.80;31.60
18712;DHT22;9485;49.386;8.674;2023-07-20T10:44:22;35.90;31.10
18712;DHT22;9485;49.386;8.674;2023-07-20T10:50:01;36.10;30.60
18712;DHT22;9485;49.386;8.674;2023-07-20T10:55:21;36.20;29.70
18712;DHT22;9485;49.386;8.674;2023-07-20T11:00:57;36.20;30.40
18712;DHT22;9485;49.386;8.674;2023-07-20T11:06:32;36.20;29.70
18712;DHT22;9485;49.386;8.674;2023-07-20T11:12:09;36.00;29.70
18712;DHT22;9485;49.386;8.674;2023-07-20T11:17:32;36.00;29.50
18712;DHT22;9485;49.386;8.674;2023-07-20T11:22:55;36.10;30.10
18712;DHT22;9485;49.386;8.674;2023-07-20T11:28:17;36.50;30.30
18712;DHT22;9485;49.386;8.674;2023-07-20T11:33:39;36.80;30.10
18712;DHT22;9485;49.386;8.674;2023-07-20T11:38:59;37.20;29.50
18712;DHT22;9485;49.386;8.674;2023-07-20T11:44:21;37.40;29.40
18712;DHT22;9485;49.386;8.674;2023-07-20T11:49:47;37.40;29.00
18712;DHT22;9485;49.386;8.674;2023-07-20T11:55:13;37.20;28.50
18712;DHT22;9485;49.386;8.674;2023-07-20T12:00:35;37.00;28.90
18712;DHT22;9485;49.386;8.674;2023-07-20T12:06:06;36.80;29.10
18712;DHT22;9485;49.386;8.674;2023-07-20T12:11:32;36.80;28.60
18712;DHT22;9485;49.386;8.674;2023-07-20T12:16:54;36.90;28.20
18712;DHT22;9485;49.386;8.674;2023-07-20T12:22:16;36.80;28.60
18712;DHT22;9485;49.386;8.674;2023-07-20T12:27:36;36.70;28.40
18712;DHT22;9485;49.386;8.674;2023-07-20T12:32:57;36.70;28.80
18712;DHT22;9485;49.386;8.674;2023-07-20T12:38:20;36.80;28.80
18712;DHT22;9485;49.386;8.674;2023-07-20T12:43:41;36.90;28.70
18712;DHT22;9485;49.386;8.674;2023-07-20T12:49:02;37.20;28.60
18712;DHT22;9485;49.386;8.674;2023-07-20T12:54:24;37.40;28.30
18712;DHT22;9485;49.386;8.674;2023-07-20T12:59:45;37.50;28.20
18712;DHT22;9485;49.386;8.674;2023-07-20T13:05:06;37.70;28.00
18712;DHT22;9485;49.386;8.674;2023-07-20T13:10:29;37.70;27.90
18712;DHT22;9485;49.386;8.674;2023-07-20T13:15:50;37.80;27.50
18712;DHT22;9485;49.386;8.674;2023-07-20T13:21:11;37.80;27.80
18712;DHT22;9485;49.386;8.674;2023-07-20T13:26:33;38.10;27.60
18712;DHT22;9485;49.386;8.674;2023-07-20T13:31:54;38.20;26.90
18712;DHT22;9485;49.386;8.674;2023-07-20T13:37:15;37.80;26.70
18712;DHT22;9485;49.386;8.674;2023-07-20T13:42:37;37.70;26.80
18712;DHT22;9485;49.386;8.674;2023-07-20T13:47:59;37.80;26.90
18712;DHT22;9485;49.386;8.674;2023-07-20T13:53:21;38.10;26.70
18712;DHT22;9485;49.386;8.674;2023-07-20T13:58:43;38.10;26.60
18712;DHT22;9485;49.386;8.674;2023-07-20T14:04:04;38.10;26.30
18712;DHT22;9485;49.386;8.674;2023-07-20T14:09:24;38.00;26.10
18712;DHT22;9485;49.386;8.674;2023-07-20T14:14:47;37.60;26.10
18712;DHT22;9485;49.386;8.674;2023-07-20T14:20:08;37.20;26.50
18712;DHT22;9485;49.386;8.674;2023-07-20T14:25:29;36.70;26.40
18712;DHT22;9485;49.386;8.674;2023-07-20T14:30:53;36.40;26.90
18712;DHT22;9485;49.386;8.674;2023-07-20T14:36:14;36.20;27.20
18712;DHT22;9485;49.386;8.674;2023-07-20T14:41:34;36.20;27.40
18712;DHT22;9485;49.386;8.674;2023-07-20T14:46:56;36.40;27.30
18712;DHT22;9485;49.386;8.674;2023-07-20T14:52:17;36.50;27.00
18712;DHT22;9485;49.386;8.674;2023-07-20T14:57:38;36.30;26.70
18712;DHT22;9485;49.386;8.674;2023-07-20T15:03:00;36.10;26.70
18712;DHT22;9485;49.386;8.674;2023-07-20T15:08:21;35.80;26.40
18712;DHT22;9485;49.386;8.674;2023-07-20T15:13:42;35.40;26.60
18712;DHT22;9485;49.386;8.674;2023-07-20T15:19:04;35.00;26.60
18712;DHT22;9485;49.386;8.674;2023-07-20T15:24:25;34.60;26.70
18712;DHT22;9485;49.386;8.674;2023-07-20T15:29:46;34.20;27.00
18712;DHT22;9485;49.386;8.674;2023-07-20T15:35:08;33.90;27.10
18712;DHT22;9485;49.386;8.674;2023-07-20T15:40:30;33.60;27.10
18712;DHT22;9485;49.386;8.674;2023-07-20T15:46:01;33.50;27.20
18712;DHT22;9485;49.386;8.674;2023-07-20T15:51:31;33.20;27.60
18712;DHT22;9485;49.386;8.674;2023-07-20T15:56:53;33.00;27.50
18712;DHT22;9485;49.386;8.674;2023-07-20T16:02:14;32.80;27.40
18712;DHT22;9485;49.386;8.674;2023-07-20T16:07:36;32.60;27.40
18712;DHT22;9485;49.386;8.674;2023-07-20T16:12:57;32.40;27.50
18712;DHT22;9485;49.386;8.674;2023-07-20T16:18:19;32.20;27.70
18712;DHT22;9485;49.386;8.674;2023-07-20T16:23:41;32.10;27.80
18712;DHT22;9485;49.386;8.674;2023-07-20T16:29:02;31.90;27.80
18712;DHT22;9485;49.386;8.674;2023-07-20T16:34:23;31.80;27.80
18712;DHT22;9485;49.386;8.674;2023-07-20T16:39:50;31.80;28.00
18712;DHT22;9485;49.386;8.674;2023-07-20T16:45:11;31.60;28.00
18712;DHT22;9485;49.386;8.674;2023-07-20T16:50:32;31.60;28.10
18712;DHT22;9485;49.386;8.674;2023-07-20T16:55:56;31.50;28.20
18712;DHT22;9485;49.386;8.674;2023-07-20T17:01:17;31.50;28.40
18712;DHT22;9485;49.386;8.674;2023-07-20T17:06:37;31.50;28.40
18712;DHT22;9485;49.386;8.674;2023-07-20T17:12:00;31.40;28.40
18712;DHT22;9485;49.386;8.674;2023-07-20T17:17:21;31.30;28.30
18712;DHT22;9485;49.386;8.674;2023-07-20T17:22:43;31.30;28.20
18712;DHT22;9485;49.386;8.674;2023-07-20T17:28:05;31.20;28.00
18712;DHT22;9485;49.386;8.674;2023-07-20T17:33:27;31.20;28.30
18712;DHT22;9485;49.386;8.674;2023-07-20T17:38:48;31.10;28.30
18712;DHT22;9485;49.386;8.674;2023-07-20T17:44:11;31.00;28.50
18712;DHT22;9485;49.386;8.674;2023-07-20T17:49:32;30.90;28.50
18712;DHT22;9485;49.386;8.674;2023-07-20T17:54:53;30.80;28.60
18712;DHT22;9485;49.386;8.674;2023-07-20T18:00:17;30.60;28.60
18712;DHT22;9485;49.386;8.674;2023-07-20T18:05:38;30.50;28.70
18712;DHT22;9485;49.386;8.674;2023-07-20T18:11:03;30.40;28.80
18712;DHT22;9485;49.386;8.674;2023-07-20T18:16:26;30.30;29.20
18712;DHT22;9485;49.386;8.674;2023-07-20T18:21:46;30.20;29.10
18712;DHT22;9485;49.386;8.674;2023-07-20T18:27:07;30.10;29.00
18712;DHT22;9485;49.386;8.674;2023-07-20T18:32:30;29.90;29.10
18712;DHT22;9485;49.386;8.674;2023-07-20T18:37:51;29.80;29.30
18712;DHT22;9485;49.386;8.674;2023-07-20T18:43:13;29.60;29.60
18712;DHT22;9485;49.386;8.674;2023-07-20T18:48:36;29.50;29.70
18712;DHT22;9485;49.386;8.674;2023-07-20T18:53:57;29.40;29.90
18712;DHT22;9485;49.386;8.674;2023-07-20T18:59:19;29.30;30.00
18712;DHT22;9485;49.386;8.674;2023-07-20T19:04:41;29.20;30.20
18712;DHT22;9485;49.386;8.674;2023-07-20T19:10:02;29.00;30.50
18712;DHT22;9485;49.386;8.674;2023-07-20T19:15:25;28.90;30.40
18712;DHT22;9485;49.386;8.674;2023-07-20T19:20:47;28.70;30.50
18712;DHT22;9485;49.386;8.674;2023-07-20T19:26:08;28.60;30.80
18712;DHT22;9485;49.386;8.674;2023-07-20T19:31:29;28.50;31.00
18712;DHT22;9485;49.386;8.674;2023-07-20T19:36:51;28.40;31.30
18712;DHT22;9485;49.386;8.674;2023-07-20T19:42:11;28.30;32.40
18712;DHT22;9485;49.386;8.674;2023-07-20T19:47:32;28.20;33.30
18712;DHT22;9485;49.386;8.674;2023-07-20T19:52:54;28.00;33.10
18712;DHT22;9485;49.386;8.674;2023-07-20T19:58:15;27.90;33.90
18712;DHT22;9485;49.386;8.674;2023-07-20T20:03:36;27.70;33.70
18712;DHT22;9485;49.386;8.674;2023-07-20T20:08:58;27.50;33.90
18712;DHT22;9485;49.386;8.674;2023-07-20T20:14:19;27.30;34.40
18712;DHT22;9485;49.386;8.674;2023-07-20T20:19:39;27.10;34.90
18712;DHT22;9485;49.386;8.674;2023-07-20T20:25:02;27.00;34.90
18712;DHT22;9485;49.386;8.674;2023-07-20T20:30:23;27.00;34.90
18712;DHT22;9485;49.386;8.674;2023-07-20T20:35:45;26.80;34.70
18712;DHT22;9485;49.386;8.674;2023-07-20T20:41:12;26.70;34.80
18712;DHT22;9485;49.386;8.674;2023-07-20T20:46:32;26.70;34.60
18712;DHT22;9485;49.386;8.674;2023-07-20T20:51:53;26.70;34.60
18712;DHT22;9485;49.386;8.674;2023-07-20T20:57:16;26.60;34.90
18712;DHT22;9485;49.386;8.674;2023-07-20T21:02:36;26.60;35.20
18712;DHT22;9485;49.386;8.674;2023-07-20T21:07:58;26.50;35.10
18712;DHT22;9485;49.386;8.674;2023-07-20T21:13:20;26.40;35.50
18712;DHT22;9485;49.386;8.674;2023-07-20T21:18:41;26.30;35.70
18712;DHT22;9485;49.386;8.674;2023-07-20T21:24:02;26.20;35.50
18712;DHT22;9485;49.386;8.674;2023-07-20T21:29:24;26.10;35.40
18712;DHT22;9485;49.386;8.674;2023-07-20T21:34:45;26.10;35.70
18712;DHT22;9485;49.386;8.674;2023-07-20T21:40:07;26.10;35.80
18712;DHT22;9485;49.386;8.674;2023-07-20T21:45:30;26.10;36.00
18712;DHT22;9485;49.386;8.674;2023-07-20T21:50:52;26.10;36.40
18712;DHT22;9485;49.386;8.674;2023-07-20T21:56:14;26.00;36.10
18712;DHT22;9485;49.386;8.674;2023-07-20T22:01:36;26.00;36.20
18712;DHT22;9485;49.386;8.674;2023-07-20T22:06:57;26.00;36.30
18712;DHT22;9485;49.386;8.674;2023-07-20T22:12:17;26.00;36.20
18712;DHT22;9485;49.386;8.674;2023-07-20T22:17:39;25.90;36.30
18712;DHT22;9485;49.386;8.674;2023-07-20T22:23:00;25.90;36.30
18712;DHT22;9485;49.386;8.674;2023-07-20T22:28:21;25.90;36.20
18712;DHT22;9485;49.386;8.674;2023-07-20T22:33:43;25.90;36.10
18712;DHT22;9485;49.386;8.674;2023-07-20T22:39:04;25.90;36.00
18712;DHT22;9485;49.386;8.674;2023-07-20T22:44:25;26.10;36.00
18712;DHT22;9485;49.386;8.674;2023-07-20T22:49:47;26.00;35.70
18712;DHT22;9485;49.386;8.674;2023-07-20T22:55:08;26.10;35.70
18712;DHT22;9485;49.386;8.674;2023-07-20T23:00:30;26.10;35.60
18712;DHT22;9485;49.386;8.674;2023-07-20T23:05:52;26.00;35.50
18712;DHT22;9485;49.386;8.674;2023-07-20T23:11:13;26.00;35.50
18712;DHT22;9485;49.386;8.674;2023-07-20T23:16:34;26.00;35.50
18712;DHT22;9485;49.386;8.674;2023-07-20T23:21:56;26.10;35.60
18712;DHT22;9485;49.386;8.674;2023-07-20T23:27:17;26.00;35.60
18712;DHT22;9485;49.386;8.674;2023-07-20T23:32:37;26.00;35.60
18712;DHT22;9485;49.386;8.674;2023-07-20T23:37:59;25.90;35.60
18712;DHT22;9485;49.386;8.674;2023-07-20T23:43:21;25.90;35.70
18712;DHT22;9485;49.386;8.674;2023-07-20T23:48:41;25.90;35.70
18712;DHT22;9485;49.386;8.674;2023-07-20T23:54:04;25.90;35.80
18712;DHT22;9485;49.386;8.674;2023-07-20T23:59:25;25.80;35.90
